sensor_id;sensor_type;location;lat;lon;timestamp;temperature;humidity
10386;DHT22;34307;51.332;12.334;2023-05-16T00:06:17;12.20;99.90
10386;DHT22;34307;51.332;12.334;2023-05-16T00:08:46;12.20;99.90
10386;DHT22;34307;51.332;12.334;2023-05-16T00:11:15;12.20;99.90
10386;DHT22;34307;51.332;12.334;2023-05-16T00:13:43;12.20;99.90
10386;DHT22;34307;51.332;12.334;2023-05-16T00:16:14;12.10;99.90
10386;DHT22;34307;51.332;12.334;2023-05-16T00:18:42;12.10;99.90
10386;DHT22;34307;51.332;12.334;2023-05-16T00:21:12;12.10;99.90
10386;DHT22;34307;51.332;12.334;2023-05-16T00:23:42;12.00;99.90
10386;DHT22;34307;51.332;12.334;2023-05-16T00:26:12;12.00;99.90
10386;DHT22;34307;51.332;12.334;2023-05-16T00:28:41;11.90;99.90
10386;DHT22;34307;51.332;12.334;2023-05-16T00:31:09;11.90;99.90
10386;DHT22;34307;51.332;12.334;2023-05-16T00:33:37;11.90;99.90
10386;DHT22;34307;51.332;12.334;2023-05-16T00:36:07;11.70;99.90
10386;DHT22;34307;51.332;12.334;2023-05-16T00:38:48;11.70;99.90
10386;DHT22;34307;51.332;12.334;2023-05-16T00:41:17;11.70;99.90
10386;DHT22;34307;51.332;12.334;2023-05-16T00:43:45;11.60;99.90
10386;DHT22;34307;51.332;12.334;2023-05-16T00:46:15;11.60;99.90
10386;DHT22;34307;51.332;12.334;2023-05-16T00:48:44;11.50;99.90
10386;DHT22;34307;51.332;12.334;2023-05-16T00:51:12;11.40;99.90
10386;DHT22;34307;51.332;12.334;2023-05-16T00:53:40;11.40;99.90
10386;DHT22;34307;51.332;12.334;2023-05-16T00:56:10;11.40;99.90
10386;DHT22;34307;51.332;12.334;2023-05-16T00:58:37;11.40;99.90
10386;DHT22;34307;51.332;12.334;2023-05-16T01:01:06;11.40;99.90
10386;DHT22;34307;51.332;12.334;2023-05-16T01:03:34;11.50;99.90
10386;DHT22;34307;51.332;12.334;2023-05-16T01:06:03;11.50;99.90
10386;DHT22;34307;51.332;12.334;2023-05-16T01:08:32;11.40;99.90
10386;DHT22;34307;51.332;12.334;2023-05-16T01:14:13;11.40;99.90
10386;DHT22;34307;51.332;12.334;2023-05-16T01:16:49;11.30;99.90
10386;DHT22;34307;51.332;12.334;2023-05-16T01:19:31;11.20;99.90
10386;DHT22;34307;51.332;12.334;2023-05-16T01:22:04;11.20;99.90
10386;DHT22;34307;51.332;12.334;2023-05-16T01:24:43;11.20;99.90
10386;DHT22;34307;51.332;12.334;2023-05-16T01:27:12;11.10;99.90
10386;DHT22;34307;51.332;12.334;2023-05-16T01:29:42;11.00;99.90
10386;DHT22;34307;51.332;12.334;2023-05-16T01:32:09;11.00;99.90
10386;DHT22;34307;51.332;12.334;2023-05-16T01:34:40;11.00;99.90
10386;DHT22;34307;51.332;12.334;2023-05-16T01:37:13;10.90;99.90
10386;DHT22;34307;51.332;12.334;2023-05-16T01:39:46;11.00;99.90
10386;DHT22;34307;51.332;12.334;2023-05-16T01:42:20;11.00;99.90
10386;DHT22;34307;51.332;12.334;2023-05-16T01:47:59;11.00;99.90
10386;DHT22;34307;51.332;12.334;2023-05-16T01:50:33;10.90;99.90
10386;DHT22;34307;51.332;12.334;2023-05-16T01:53:07;10.90;99.90
10386;DHT22;34307;51.332;12.334;2023-05-16T01:55:41;10.80;99.90
10386;DHT22;34307;51.332;12.334;2023-05-16T01:58:12;10.80;99.90
10386;DHT22;34307;51.332;12.334;2023-05-16T02:00:41;10.60;99.90
10386;DHT22;34307;51.332;12.334;2023-05-16T02:03:10;10.60;99.90
10386;DHT22;34307;51.332;12.334;2023-05-16T02:05:40;10.50;99.90
10386;DHT22;34307;51.332;12.334;2023-05-16T02:08:10;10.50;99.90
10386;DHT22;34307;51.332;12.334;2023-05-16T02:10:38;10.40;99.90
10386;DHT22;34307;51.332;12.334;2023-05-16T02:13:10;10.40;99.90
10386;DHT22;34307;51.332;12.334;2023-05-16T02:15:39;10.30;99.90
10386;DHT22;34307;51.332;12.334;2023-05-16T02:18:07;10.30;99.90
10386;DHT22;34307;51.332;12.334;2023-05-16T02:21:08;10.30;99.90
10386;DHT22;34307;51.332;12.334;2023-05-16T02:23:36;10.20;99.90
10386;DHT22;34307;51.332;12.334;2023-05-16T02:26:04;10.10;99.90
10386;DHT22;34307;51.332;12.334;2023-05-16T02:28:33;10.00;99.90
10386;DHT22;34307;51.332;12.334;2023-05-16T02:31:01;9.90;99.90
10386;DHT22;34307;51.332;12.334;2023-05-16T02:33:30;9.80;99.90
10386;DHT22;34307;51.332;12.334;2023-05-16T02:35:58;9.80;99.90
10386;DHT22;34307;51.332;12.334;2023-05-16T02:38:26;9.70;99.90
10386;DHT22;34307;51.332;12.334;2023-05-16T02:40:54;9.70;99.90
10386;DHT22;34307;51.332;12.334;2023-05-16T02:43:22;9.60;99.90
10386;DHT22;34307;51.332;12.334;2023-05-16T02:45:53;9.50;99.90
10386;DHT22;34307;51.332;12.334;2023-05-16T02:48:22;9.50;99.90
10386;DHT22;34307;51.332;12.334;2023-05-16T02:50:51;9.40;99.90
10386;DHT22;34307;51.332;12.334;2023-05-16T02:53:19;9.40;99.90
10386;DHT22;34307;51.332;12.334;2023-05-16T02:56:21;9.30;99.90
10386;DHT22;34307;51.332;12.334;2023-05-16T02:58:53;9.30;99.90
10386;DHT22;34307;51.332;12.334;2023-05-16T03:01:22;9.20;99.90
10386;DHT22;34307;51.332;12.334;2023-05-16T03:03:52;9.20;99.90
10386;DHT22;34307;51.332;12.334;2023-05-16T03:06:21;9.10;99.90
10386;DHT22;34307;51.332;12.334;2023-05-16T03:08:49;9.10;99.90
10386;DHT22;34307;51.332;12.334;2023-05-16T03:11:17;9.10;99.90
10386;DHT22;34307;51.332;12.334;2023-05-16T03:13:56;9.10;99.90
10386;DHT22;34307;51.332;12.334;2023-05-16T03:16:31;9.10;99.90
10386;DHT22;34307;51.332;12.334;2023-05-16T03:18:59;9.00;99.90
10386;DHT22;34307;51.332;12.334;2023-05-16T03:21:29;8.90;99.90
10386;DHT22;34307;51.332;12.334;2023-05-16T03:23:57;8.90;99.90
10386;DHT22;34307;51.332;12.334;2023-05-16T03:26:25;8.90;99.90
10386;DHT22;34307;51.332;12.334;2023-05-16T03:28:54;8.80;99.90
10386;DHT22;34307;51.332;12.334;2023-05-16T03:31:23;8.80;99.90
10386;DHT22;34307;51.332;12.334;2023-05-16T03:33:53;8.80;99.90
10386;DHT22;34307;51.332;12.334;2023-05-16T07:37:34;10.60;99.90
10386;DHT22;34307;51.332;12.334;2023-05-16T07:40:03;10.70;99.90
10386;DHT22;34307;51.332;12.334;2023-05-16T07:42:31;10.60;99.90
10386;DHT22;34307;51.332;12.334;2023-05-16T07:44:59;10.70;99.90
10386;DHT22;34307;51.332;12.334;2023-05-16T07:47:30;10.70;99.90
10386;DHT22;34307;51.332;12.334;2023-05-16T07:49:58;10.80;99.90
10386;DHT22;34307;51.332;12.334;2023-05-16T07:52:26;10.90;99.90
10386;DHT22;34307;51.332;12.334;2023-05-16T07:54:59;11.10;99.90
10386;DHT22;34307;51.332;12.334;2023-05-16T07:57:28;11.30;99.90
10386;DHT22;34307;51.332;12.334;2023-05-16T07:59:56;11.50;99.90
10386;DHT22;34307;51.332;12.334;2023-05-16T08:02:26;11.40;99.90
10386;DHT22;34307;51.332;12.334;2023-05-16T08:04:59;11.40;99.90
10386;DHT22;34307;51.332;12.334;2023-05-16T08:07:27;11.30;99.90
10386;DHT22;34307;51.332;12.334;2023-05-16T08:09:58;11.20;99.90
10386;DHT22;34307;51.332;12.334;2023-05-16T08:12:26;11.20;99.90
10386;DHT22;34307;51.332;12.334;2023-05-16T08:14:57;11.20;99.90
10386;DHT22;34307;51.332;12.334;2023-05-16T08:17:28;11.30;99.90
10386;DHT22;34307;51.332;12.334;2023-05-16T08:19:56;11.60;99.90
10386;DHT22;34307;51.332;12.334;2023-05-16T08:22:27;11.80;99.90
10386;DHT22;34307;51.332;12.334;2023-05-16T08:24:55;12.00;99.90
10386;DHT22;34307;51.332;12.334;2023-05-16T08:27:28;11.70;99.90
10386;DHT22;34307;51.332;12.334;2023-05-16T08:29:58;11.80;99.90
10386;DHT22;34307;51.332;12.334;2023-05-16T08:32:26;12.00;99.90
10386;DHT22;34307;51.332;12.334;2023-05-16T08:34:54;11.90;99.90
10386;DHT22;34307;51.332;12.334;2023-05-16T08:37:44;12.00;99.90
10386;DHT22;34307;51.332;12.334;2023-05-16T08:40:15;12.00;99.90
10386;DHT22;34307;51.332;12.334;2023-05-16T08:42:46;12.20;99.90
10386;DHT22;34307;51.332;12.334;2023-05-16T08:45:21;12.20;99.90
10386;DHT22;34307;51.332;12.334;2023-05-16T08:47:53;12.10;99.90
10386;DHT22;34307;51.332;12.334;2023-05-16T08:50:40;11.90;99.90
10386;DHT22;34307;51.332;12.334;2023-05-16T08:57:10;11.50;99.90
10386;DHT22;34307;51.332;12.334;2023-05-16T09:00:20;11.80;99.90
10386;DHT22;34307;51.332;12.334;2023-05-16T09:03:10;11.80;99.90
10386;DHT22;34307;51.332;12.334;2023-05-16T09:05:38;11.80;99.90
10386;DHT22;34307;51.332;12.334;2023-05-16T09:08:07;11.80;99.90
10386;DHT22;34307;51.332;12.334;2023-05-16T09:10:35;11.90;99.90
10386;DHT22;34307;51.332;12.334;2023-05-16T09:13:49;12.20;99.90
10386;DHT22;34307;51.332;12.334;2023-05-16T09:16:48;12.30;99.90
10386;DHT22;34307;51.332;12.334;2023-05-16T09:23:24;11.90;99.90
10386;DHT22;34307;51.332;12.334;2023-05-16T09:25:52;11.70;99.90
10386;DHT22;34307;51.332;12.334;2023-05-16T09:28:24;11.70;99.90
10386;DHT22;34307;51.332;12.334;2023-05-16T09:31:19;11.90;99.90
10386;DHT22;34307;51.332;12.334;2023-05-16T09:33:49;11.90;99.90
10386;DHT22;34307;51.332;12.334;2023-05-16T09:36:18;11.90;99.90
10386;DHT22;34307;51.332;12.334;2023-05-16T09:38:47;12.20;99.90
10386;DHT22;34307;51.332;12.334;2023-05-16T09:41:15;12.20;99.30
10386;DHT22;34307;51.332;12.334;2023-05-16T09:43:44;12.10;97.20
10386;DHT22;34307;51.332;12.334;2023-05-16T09:46:15;11.90;97.20
10386;DHT22;34307;51.332;12.334;2023-05-16T09:48:44;11.70;99.10
10386;DHT22;34307;51.332;12.334;2023-05-16T09:51:14;11.80;99.60
10386;DHT22;34307;51.332;12.334;2023-05-16T09:53:42;11.90;99.50
10386;DHT22;34307;51.332;12.334;2023-05-16T09:56:12;11.90;99.50
10386;DHT22;34307;51.332;12.334;2023-05-16T09:58:42;11.90;99.90
10386;DHT22;34307;51.332;12.334;2023-05-16T10:01:11;11.90;99.90
10386;DHT22;34307;51.332;12.334;2023-05-16T10:03:40;12.00;99.90
10386;DHT22;34307;51.332;12.334;2023-05-16T10:06:09;11.80;99.90
10386;DHT22;34307;51.332;12.334;2023-05-16T10:08:42;11.70;99.90
10386;DHT22;34307;51.332;12.334;2023-05-16T10:11:11;11.70;99.90
10386;DHT22;34307;51.332;12.334;2023-05-16T10:13:40;11.70;99.20
10386;DHT22;34307;51.332;12.334;2023-05-16T10:16:11;11.80;99.90
10386;DHT22;34307;51.332;12.334;2023-05-16T10:18:41;11.90;97.40
10386;DHT22;34307;51.332;12.334;2023-05-16T10:21:13;11.90;95.70
10386;DHT22;34307;51.332;12.334;2023-05-16T10:23:47;11.90;95.10
10386;DHT22;34307;51.332;12.334;2023-05-16T10:26:16;11.90;96.50
10386;DHT22;34307;51.332;12.334;2023-05-16T10:28:46;12.10;96.00
10386;DHT22;34307;51.332;12.334;2023-05-16T10:31:15;12.20;93.30
10386;DHT22;34307;51.332;12.334;2023-05-16T10:33:43;12.20;94.90
10386;DHT22;34307;51.332;12.334;2023-05-16T10:36:12;12.40;94.00
10386;DHT22;34307;51.332;12.334;2023-05-16T10:38:43;12.30;92.60
10386;DHT22;34307;51.332;12.334;2023-05-16T10:41:11;12.00;94.10
10386;DHT22;34307;51.332;12.334;2023-05-16T10:43:43;11.80;97.20
10386;DHT22;34307;51.332;12.334;2023-05-16T10:46:17;11.70;99.90
10386;DHT22;34307;51.332;12.334;2023-05-16T10:48:47;11.70;99.90
10386;DHT22;34307;51.332;12.334;2023-05-16T10:51:35;11.50;99.90
10386;DHT22;34307;51.332;12.334;2023-05-16T10:54:10;11.50;99.90
10386;DHT22;34307;51.332;12.334;2023-05-16T10:56:40;11.60;99.90
10386;DHT22;34307;51.332;12.334;2023-05-16T10:59:22;11.50;99.90
10386;DHT22;34307;51.332;12.334;2023-05-16T11:01:52;11.30;99.90
10386;DHT22;34307;51.332;12.334;2023-05-16T11:04:44;11.30;99.90
10386;DHT22;34307;51.332;12.334;2023-05-16T11:07:17;11.40;99.90
10386;DHT22;34307;51.332;12.334;2023-05-16T11:09:52;11.50;99.80
10386;DHT22;34307;51.332;12.334;2023-05-16T11:13:08;11.30;98.60
10386;DHT22;34307;51.332;12.334;2023-05-16T11:15:39;11.30;99.90
10386;DHT22;34307;51.332;12.334;2023-05-16T11:18:15;11.40;99.90
10386;DHT22;34307;51.332;12.334;2023-05-16T11:20:44;11.60;98.60
10386;DHT22;34307;51.332;12.334;2023-05-16T11:23:19;11.80;96.90
10386;DHT22;34307;51.332;12.334;2023-05-16T11:28:31;12.30;91.40
10386;DHT22;34307;51.332;12.334;2023-05-16T11:30:59;12.40;84.70
10386;DHT22;34307;51.332;12.334;2023-05-16T11:33:30;12.40;87.00
10386;DHT22;34307;51.332;12.334;2023-05-16T11:36:03;12.40;82.80
10386;DHT22;34307;51.332;12.334;2023-05-16T11:38:41;12.60;83.60
10386;DHT22;34307;51.332;12.334;2023-05-16T11:41:10;12.40;82.20
10386;DHT22;34307;51.332;12.334;2023-05-16T11:43:41;12.20;87.90
10386;DHT22;34307;51.332;12.334;2023-05-16T11:46:10;12.00;91.60
10386;DHT22;34307;51.332;12.334;2023-05-16T11:48:39;12.00;91.00
10386;DHT22;34307;51.332;12.334;2023-05-16T11:51:08;12.20;85.90
10386;DHT22;34307;51.332;12.334;2023-05-16T11:53:36;12.20;83.20
10386;DHT22;34307;51.332;12.334;2023-05-16T11:56:07;12.20;80.30
10386;DHT22;34307;51.332;12.334;2023-05-16T11:58:35;12.40;78.50
10386;DHT22;34307;51.332;12.334;2023-05-16T12:01:05;12.60;72.70
10386;DHT22;34307;51.332;12.334;2023-05-16T12:03:33;12.50;73.00
10386;DHT22;34307;51.332;12.334;2023-05-16T12:06:03;12.40;75.70
10386;DHT22;34307;51.332;12.334;2023-05-16T12:08:31;12.40;76.00
10386;DHT22;34307;51.332;12.334;2023-05-16T12:10:59;12.50;73.90
10386;DHT22;34307;51.332;12.334;2023-05-16T12:13:27;12.60;73.00
10386;DHT22;34307;51.332;12.334;2023-05-16T12:15:56;12.90;72.10
10386;DHT22;34307;51.332;12.334;2023-05-16T12:18:26;12.90;70.30
10386;DHT22;34307;51.332;12.334;2023-05-16T12:20:54;12.80;69.10
10386;DHT22;34307;51.332;12.334;2023-05-16T12:23:25;12.80;69.80
10386;DHT22;34307;51.332;12.334;2023-05-16T12:25:54;12.90;72.00
10386;DHT22;34307;51.332;12.334;2023-05-16T12:28:31;13.20;68.70
10386;DHT22;34307;51.332;12.334;2023-05-16T12:31:00;13.50;63.10
10386;DHT22;34307;51.332;12.334;2023-05-16T12:33:29;13.60;61.90
10386;DHT22;34307;51.332;12.334;2023-05-16T12:36:00;13.70;60.50
10386;DHT22;34307;51.332;12.334;2023-05-16T12:38:31;13.50;55.50
10386;DHT22;34307;51.332;12.334;2023-05-16T12:40:59;13.00;54.40
10386;DHT22;34307;51.332;12.334;2023-05-16T12:43:27;13.00;55.10
10386;DHT22;34307;51.332;12.334;2023-05-16T12:45:55;13.40;53.70
10386;DHT22;34307;51.332;12.334;2023-05-16T12:48:32;13.50;52.20
10386;DHT22;34307;51.332;12.334;2023-05-16T12:51:11;13.60;49.60
10386;DHT22;34307;51.332;12.334;2023-05-16T12:54:18;13.70;48.30
10386;DHT22;34307;51.332;12.334;2023-05-16T12:57:43;13.90;46.00
10386;DHT22;34307;51.332;12.334;2023-05-16T13:00:47;14.50;42.50
10386;DHT22;34307;51.332;12.334;2023-05-16T13:03:34;14.90;34.90
10386;DHT22;34307;51.332;12.334;2023-05-16T13:06:12;14.90;30.30
10386;DHT22;34307;51.332;12.334;2023-05-16T13:09:04;14.70;33.40
10386;DHT22;34307;51.332;12.334;2023-05-16T13:11:34;16.50;25.70
10386;DHT22;34307;51.332;12.334;2023-05-16T13:14:14;16.20;14.00
10386;DHT22;34307;51.332;12.334;2023-05-16T13:16:45;15.40;12.10
10386;DHT22;34307;51.332;12.334;2023-05-16T13:19:14;15.70;10.00
10386;DHT22;34307;51.332;12.334;2023-05-16T13:21:42;15.50;9.50
10386;DHT22;34307;51.332;12.334;2023-05-16T13:24:16;15.60;10.10
10386;DHT22;34307;51.332;12.334;2023-05-16T13:26:47;15.20;11.40
10386;DHT22;34307;51.332;12.334;2023-05-16T13:29:17;15.00;11.00
10386;DHT22;34307;51.332;12.334;2023-05-16T13:31:45;15.30;11.40
10386;DHT22;34307;51.332;12.334;2023-05-16T13:34:14;16.10;11.10
10386;DHT22;34307;51.332;12.334;2023-05-16T13:36:44;15.90;7.30
10386;DHT22;34307;51.332;12.334;2023-05-16T13:52:19;15.50;6.70
10386;DHT22;34307;51.332;12.334;2023-05-16T13:54:51;15.20;7.60
10386;DHT22;34307;51.332;12.334;2023-05-16T13:57:20;16.40;4.80
10386;DHT22;34307;51.332;12.334;2023-05-16T13:59:49;17.00;1.00
10386;DHT22;34307;51.332;12.334;2023-05-16T14:02:20;16.30;1.00
10386;DHT22;34307;51.332;12.334;2023-05-16T14:04:48;16.90;1.00
10386;DHT22;34307;51.332;12.334;2023-05-16T14:07:18;16.50;1.00
10386;DHT22;34307;51.332;12.334;2023-05-16T14:09:46;16.90;1.00
10386;DHT22;34307;51.332;12.334;2023-05-16T14:12:14;16.80;1.00
10386;DHT22;34307;51.332;12.334;2023-05-16T14:14:42;17.10;1.00
10386;DHT22;34307;51.332;12.334;2023-05-16T14:17:20;17.60;1.00
10386;DHT22;34307;51.332;12.334;2023-05-16T14:20:12;18.10;1.00
10386;DHT22;34307;51.332;12.334;2023-05-16T14:23:11;18.10;1.00
10386;DHT22;34307;51.332;12.334;2023-05-16T14:26:14;17.30;1.00
10386;DHT22;34307;51.332;12.334;2023-05-16T14:28:59;16.80;1.00
10386;DHT22;34307;51.332;12.334;2023-05-16T14:31:55;16.60;1.00
10386;DHT22;34307;51.332;12.334;2023-05-16T14:34:26;16.60;1.00
10386;DHT22;34307;51.332;12.334;2023-05-16T14:36:54;17.30;1.00
10386;DHT22;34307;51.332;12.334;2023-05-16T14:39:23;17.30;1.00
10386;DHT22;34307;51.332;12.334;2023-05-16T14:41:51;18.00;1.00
10386;DHT22;34307;51.332;12.334;2023-05-16T14:44:20;17.90;1.00
10386;DHT22;34307;51.332;12.334;2023-05-16T14:46:50;16.90;1.00
10386;DHT22;34307;51.332;12.334;2023-05-16T14:49:21;16.60;1.00
10386;DHT22;34307;51.332;12.334;2023-05-16T14:51:54;15.90;1.00
10386;DHT22;34307;51.332;12.334;2023-05-16T14:54:25;16.50;1.00
10386;DHT22;34307;51.332;12.334;2023-05-16T14:56:53;16.10;1.00
10386;DHT22;34307;51.332;12.334;2023-05-16T14:59:22;16.20;1.00
10386;DHT22;34307;51.332;12.334;2023-05-16T15:01:50;16.50;1.00
10386;DHT22;34307;51.332;12.334;2023-05-16T15:16:21;17.90;1.00
10386;DHT22;34307;51.332;12.334;2023-05-16T15:18:54;16.60;1.00
10386;DHT22;34307;51.332;12.334;2023-05-16T15:21:28;15.80;1.00
10386;DHT22;34307;51.332;12.334;2023-05-16T15:24:00;15.40;1.00
10386;DHT22;34307;51.332;12.334;2023-05-16T15:26:28;15.00;1.00
10386;DHT22;34307;51.332;12.334;2023-05-16T15:28:56;15.00;1.00
10386;DHT22;34307;51.332;12.334;2023-05-16T15:31:28;14.90;1.00
10386;DHT22;34307;51.332;12.334;2023-05-16T15:33:57;15.30;1.00
10386;DHT22;34307;51.332;12.334;2023-05-16T15:36:25;15.00;1.00
10386;DHT22;34307;51.332;12.334;2023-05-16T15:39:08;14.70;1.00
10386;DHT22;34307;51.332;12.334;2023-05-16T15:42:02;14.80;1.00
10386;DHT22;34307;51.332;12.334;2023-05-16T15:44:54;15.30;1.00
10386;DHT22;34307;51.332;12.334;2023-05-16T15:48:21;15.50;1.00
10386;DHT22;34307;51.332;12.334;2023-05-16T15:51:15;15.50;1.00
10386;DHT22;34307;51.332;12.334;2023-05-16T15:53:49;16.20;1.00
10386;DHT22;34307;51.332;12.334;2023-05-16T15:56:20;17.10;1.00
10386;DHT22;34307;51.332;12.334;2023-05-16T15:58:58;16.20;1.00
10386;DHT22;34307;51.332;12.334;2023-05-16T16:01:38;15.90;1.00
10386;DHT22;34307;51.332;12.334;2023-05-16T16:04:19;15.80;1.00
10386;DHT22;34307;51.332;12.334;2023-05-16T16:07:17;16.10;1.00
10386;DHT22;34307;51.332;12.334;2023-05-16T16:09:50;16.20;1.00
10386;DHT22;34307;51.332;12.334;2023-05-16T16:12:18;15.90;1.00
10386;DHT22;34307;51.332;12.334;2023-05-16T16:14:48;15.90;1.00
10386;DHT22;34307;51.332;12.334;2023-05-16T16:17:23;15.90;1.00
10386;DHT22;34307;51.332;12.334;2023-05-16T16:20:10;16.10;1.00
10386;DHT22;34307;51.332;12.334;2023-05-16T16:22:56;16.10;1.00
10386;DHT22;34307;51.332;12.334;2023-05-16T16:25:38;16.10;1.00
10386;DHT22;34307;51.332;12.334;2023-05-16T16:41:08;15.70;1.00
10386;DHT22;34307;51.332;12.334;2023-05-16T16:47:26;16.00;1.00
10386;DHT22;34307;51.332;12.334;2023-05-16T16:49:54;15.70;1.00
10386;DHT22;34307;51.332;12.334;2023-05-16T16:52:22;16.10;1.00
10386;DHT22;34307;51.332;12.334;2023-05-16T16:54:52;16.70;1.00
10386;DHT22;34307;51.332;12.334;2023-05-16T16:57:22;17.80;1.00
10386;DHT22;34307;51.332;12.334;2023-05-16T16:59:51;18.40;1.00
10386;DHT22;34307;51.332;12.334;2023-05-16T17:02:21;18.80;1.00
10386;DHT22;34307;51.332;12.334;2023-05-16T17:04:49;18.50;1.00
10386;DHT22;34307;51.332;12.334;2023-05-16T17:07:20;18.20;1.00
10386;DHT22;34307;51.332;12.334;2023-05-16T17:09:48;18.10;1.00
10386;DHT22;34307;51.332;12.334;2023-05-16T17:12:19;18.90;1.00
10386;DHT22;34307;51.332;12.334;2023-05-16T17:14:49;19.40;1.00
10386;DHT22;34307;51.332;12.334;2023-05-16T17:17:19;18.90;1.00
10386;DHT22;34307;51.332;12.334;2023-05-16T17:20:11;17.40;1.00
10386;DHT22;34307;51.332;12.334;2023-05-16T17:22:52;16.10;1.00
10386;DHT22;34307;51.332;12.334;2023-05-16T17:25:35;16.30;1.00
10386;DHT22;34307;51.332;12.334;2023-05-16T17:28:06;16.50;1.00
10386;DHT22;34307;51.332;12.334;2023-05-16T17:30:36;16.70;1.00
10386;DHT22;34307;51.332;12.334;2023-05-16T17:33:07;16.70;1.00
10386;DHT22;34307;51.332;12.334;2023-05-16T17:35:35;16.60;1.00
10386;DHT22;34307;51.332;12.334;2023-05-16T17:38:04;17.00;1.00
10386;DHT22;34307;51.332;12.334;2023-05-16T17:40:33;16.30;1.00
10386;DHT22;34307;51.332;12.334;2023-05-16T17:43:35;16.00;1.00
10386;DHT22;34307;51.332;12.334;2023-05-16T17:46:10;15.60;1.00
10386;DHT22;34307;51.332;12.334;2023-05-16T17:48:49;15.40;1.00
10386;DHT22;34307;51.332;12.334;2023-05-16T17:51:20;15.60;1.00
10386;DHT22;34307;51.332;12.334;2023-05-16T17:53:51;15.80;1.00
10386;DHT22;34307;51.332;12.334;2023-05-16T17:56:25;15.50;1.00
10386;DHT22;34307;51.332;12.334;2023-05-16T17:58:53;15.50;1.00
10386;DHT22;34307;51.332;12.334;2023-05-16T18:01:22;15.70;1.00
10386;DHT22;34307;51.332;12.334;2023-05-16T18:03:50;15.30;1.00
10386;DHT22;34307;51.332;12.334;2023-05-16T18:06:22;15.80;1.00
10386;DHT22;34307;51.332;12.334;2023-05-16T18:08:50;15.50;1.00
10386;DHT22;34307;51.332;12.334;2023-05-16T18:11:25;15.00;1.00
10386;DHT22;34307;51.332;12.334;2023-05-16T18:13:57;14.60;1.00
10386;DHT22;34307;51.332;12.334;2023-05-16T18:16:29;14.40;1.00
10386;DHT22;34307;51.332;12.334;2023-05-16T18:19:00;14.60;1.00
10386;DHT22;34307;51.332;12.334;2023-05-16T18:21:31;14.50;1.00
10386;DHT22;34307;51.332;12.334;2023-05-16T18:24:02;14.30;1.00
10386;DHT22;34307;51.332;12.334;2023-05-16T18:26:30;14.00;1.00
10386;DHT22;34307;51.332;12.334;2023-05-16T18:28:58;13.80;1.00
10386;DHT22;34307;51.332;12.334;2023-05-16T18:31:27;13.70;1.00
10386;DHT22;34307;51.332;12.334;2023-05-16T18:33:58;13.70;1.00
10386;DHT22;34307;51.332;12.334;2023-05-16T18:36:27;13.70;1.00
10386;DHT22;34307;51.332;12.334;2023-05-16T18:38:55;13.50;1.00
10386;DHT22;34307;51.332;12.334;2023-05-16T18:41:23;13.30;1.00
10386;DHT22;34307;51.332;12.334;2023-05-16T18:43:51;13.20;1.00
10386;DHT22;34307;51.332;12.334;2023-05-16T18:46:19;13.10;1.00
10386;DHT22;34307;51.332;12.334;2023-05-16T18:48:49;13.00;1.00
10386;DHT22;34307;51.332;12.334;2023-05-16T18:51:20;12.90;1.00
10386;DHT22;34307;51.332;12.334;2023-05-16T18:53:48;12.80;1.00
10386;DHT22;34307;51.332;12.334;2023-05-16T18:56:22;12.70;1.00
10386;DHT22;34307;51.332;12.334;2023-05-16T18:58:51;12.60;1.00
10386;DHT22;34307;51.332;12.334;2023-05-16T19:01:21;12.50;1.00
10386;DHT22;34307;51.332;12.334;2023-05-16T19:03:51;12.50;1.00
10386;DHT22;34307;51.332;12.334;2023-05-16T19:06:24;12.40;1.00
10386;DHT22;34307;51.332;12.334;2023-05-16T19:08:55;12.30;1.00
10386;DHT22;34307;51.332;12.334;2023-05-16T19:11:24;12.20;1.00
10386;DHT22;34307;51.332;12.334;2023-05-16T19:13:52;12.10;1.00
10386;DHT22;34307;51.332;12.334;2023-05-16T19:16:20;12.10;1.00
10386;DHT22;34307;51.332;12.334;2023-05-16T19:18:48;12.00;1.00
10386;DHT22;34307;51.332;12.334;2023-05-16T19:21:16;11.90;1.00
10386;DHT22;34307;51.332;12.334;2023-05-16T19:23:46;11.80;1.00
10386;DHT22;34307;51.332;12.334;2023-05-16T19:26:14;11.80;1.00
10386;DHT22;34307;51.332;12.334;2023-05-16T19:28:52;11.70;1.00
10386;DHT22;34307;51.332;12.334;2023-05-16T19:31:28;11.60;1.00
10386;DHT22;34307;51.332;12.334;2023-05-16T19:34:12;11.60;1.00
10386;DHT22;34307;51.332;12.334;2023-05-16T19:36:45;11.50;1.00
10386;DHT22;34307;51.332;12.334;2023-05-16T19:39:15;11.40;1.00
10386;DHT22;34307;51.332;12.334;2023-05-16T19:41:49;11.40;1.00
10386;DHT22;34307;51.332;12.334;2023-05-16T19:44:18;11.40;1.00
10386;DHT22;34307;51.332;12.334;2023-05-16T19:47:00;11.30;1.00
10386;DHT22;34307;51.332;12.334;2023-05-16T19:49:31;11.20;1.00
10386;DHT22;34307;51.332;12.334;2023-05-16T19:52:01;11.20;1.00
10386;DHT22;34307;51.332;12.334;2023-05-16T19:54:39;11.10;1.00
10386;DHT22;34307;51.332;12.334;2023-05-16T19:57:07;11.10;1.00
10386;DHT22;34307;51.332;12.334;2023-05-16T19:59:36;11.00;1.00
10386;DHT22;34307;51.332;12.334;2023-05-16T20:02:04;10.90;1.00
10386;DHT22;34307;51.332;12.334;2023-05-16T20:05:03;10.90;1.00
10386;DHT22;34307;51.332;12.334;2023-05-16T20:07:31;10.90;1.00
10386;DHT22;34307;51.332;12.334;2023-05-16T20:10:01;10.80;1.00
10386;DHT22;34307;51.332;12.334;2023-05-16T20:15:27;10.80;1.40
10386;DHT22;34307;51.332;12.334;2023-05-16T20:17:56;10.70;4.40
10386;DHT22;34307;51.332;12.334;2023-05-16T20:20:24;10.60;6.40
10386;DHT22;34307;51.332;12.334;2023-05-16T20:22:52;10.60;6.30
10386;DHT22;34307;51.332;12.334;2023-05-16T20:25:30;10.60;7.40
10386;DHT22;34307;51.332;12.334;2023-05-16T20:27:59;10.60;7.10
10386;DHT22;34307;51.332;12.334;2023-05-16T20:30:49;10.60;7.90
10386;DHT22;34307;51.332;12.334;2023-05-16T20:34:17;10.50;8.90
10386;DHT22;34307;51.332;12.334;2023-05-16T20:37:21;10.40;10.30
10386;DHT22;34307;51.332;12.334;2023-05-16T20:39:57;10.40;12.70
10386;DHT22;34307;51.332;12.334;2023-05-16T20:42:28;10.30;14.30
10386;DHT22;34307;51.332;12.334;2023-05-16T20:44:57;10.30;16.10
10386;DHT22;34307;51.332;12.334;2023-05-16T20:47:25;10.20;17.90
10386;DHT22;34307;51.332;12.334;2023-05-16T20:50:11;10.20;19.50
10386;DHT22;34307;51.332;12.334;2023-05-16T20:53:23;10.10;21.10
10386;DHT22;34307;51.332;12.334;2023-05-16T20:55:51;10.10;22.80
10386;DHT22;34307;51.332;12.334;2023-05-16T20:58:20;10.10;24.30
10386;DHT22;34307;51.332;12.334;2023-05-16T21:00:48;10.00;25.10
10386;DHT22;34307;51.332;12.334;2023-05-16T21:03:18;10.00;26.30
10386;DHT22;34307;51.332;12.334;2023-05-16T21:05:46;9.90;28.40
10386;DHT22;34307;51.332;12.334;2023-05-16T21:08:14;9.90;29.70